Time;durP1;ratioP1;P1;durP2;ratioP2;P2;SDS_P1;SDS_P2;PMS_P1;PMS_P2;Temp;Humidity;BMP_temperature;BMP_pressure;BME280_temperature;BME280_humidity;BME280_pressure;Samples;Min_cycle;Max_cycle;Signal;HPM_P1;HPM_P2
2023/04/04 00:00:06;;;;;;;1.17;1.10;;;1.10;99.90;0.10;101548;;;;574022;246;24163;-79
2023/04/04 00:02:34;;;;;;;1.23;0.83;;;1.10;99.90;0.10;101550;;;;582746;246;24133;-79
2023/04/04 00:05:02;;;;;;;1.43;0.73;;;1.10;99.90;0.10;101551;;;;583172;246;24155;-76
2023/04/04 00:07:30;;;;;;;1.00;0.90;;;1.10;99.90;0.10;101547;;;;573663;246;24173;-78
2023/04/04 00:09:58;;;;;;;1.53;0.67;;;1.10;99.90;0.00;101547;;;;574525;241;24160;-75
2023/04/04 00:12:27;;;;;;;1.03;0.80;;;1.00;99.90;0.00;101548;;;;574419;246;24100;-75
2023/04/04 00:14:55;;;;;;;1.33;0.97;;;1.00;99.90;-0.10;101543;;;;574907;245;24146;-76
2023/04/04 00:17:23;;;;;;;4.20;1.13;;;1.00;99.90;-0.10;101539;;;;575570;245;24074;-75
2023/04/04 00:19:50;;;;;;;5.35;1.50;;;0.90;99.90;-0.20;101546;;;;570321;245;35202;-75
2023/04/04 00:22:18;;;;;;;4.30;0.70;;;0.90;99.90;-0.20;101543;;;;575080;245;24097;-78
2023/04/04 00:24:46;;;;;;;1.00;0.77;;;0.90;99.90;-0.20;101533;;;;574930;246;24100;-76
2023/04/04 00:27:15;;;;;;;0.80;0.60;;;0.90;99.90;-0.20;101535;;;;574807;246;24073;-79
2023/04/04 00:29:43;;;;;;;1.37;0.70;;;0.90;99.90;-0.20;101533;;;;574792;246;24122;-77
2023/04/04 00:32:11;;;;;;;4.80;0.67;;;0.90;99.90;-0.20;101534;;;;574806;246;24057;-81
2023/04/04 00:34:39;;;;;;;4.47;1.00;;;0.80;99.90;-0.30;101523;;;;574590;246;24133;-77
2023/04/04 00:37:07;;;;;;;1.20;1.00;;;0.80;99.90;-0.30;101528;;;;575158;246;24082;-76
2023/04/04 00:39:35;;;;;;;2.27;1.10;;;0.80;99.90;-0.30;101524;;;;575199;246;24108;-76
2023/04/04 00:42:03;;;;;;;0.77;0.60;;;0.80;99.90;-0.30;101516;;;;569701;246;46108;-75
2023/04/04 00:44:34;;;;;;;0.87;0.40;;;0.80;99.90;-0.30;101524;;;;574670;246;24137;-74
2023/04/04 00:46:58;;;;;;;1.03;0.93;;;0.80;99.90;-0.20;101514;;;;574228;246;24181;-76
2023/04/04 00:49:26;;;;;;;0.77;0.60;;;0.80;99.90;-0.20;101525;;;;574142;246;24086;-74
2023/04/04 00:51:57;;;;;;;0.50;0.50;;;0.80;99.90;-0.20;101517;;;;573815;246;24122;-74
2023/04/04 00:54:22;;;;;;;2.43;0.63;;;0.80;99.90;-0.20;101511;;;;573662;246;24123;-74
2023/04/04 00:56:54;;;;;;;2.85;1.30;;;0.90;99.90;-0.20;101505;;;;568823;246;46076;-76
2023/04/04 00:59:19;;;;;;;0.70;0.40;;;0.90;99.90;-0.20;101509;;;;582417;246;24099;-75
2023/04/04 01:01:46;;;;;;;1.60;0.50;;;0.90;99.90;-0.20;101504;;;;573956;246;24089;-76
2023/04/04 01:04:14;;;;;;;1.33;0.97;;;0.90;99.90;-0.20;101494;;;;573813;246;24152;-75
2023/04/04 01:06:42;;;;;;;0.77;0.60;;;0.90;99.90;-0.10;101489;;;;573987;246;24078;-75
2023/04/04 01:09:14;;;;;;;3.50;0.77;;;0.90;99.90;-0.20;101497;;;;578483;246;24122;-76
2023/04/04 01:11:40;;;;;;;5.67;1.07;;;0.90;99.90;-0.10;101487;;;;582718;245;24137;-76
2023/04/04 01:14:08;;;;;;;4.17;1.53;;;0.90;99.90;-0.10;101480;;;;574263;246;24085;-76
2023/04/04 01:16:35;;;;;;;2.43;1.40;;;0.90;99.90;-0.10;101482;;;;574278;246;24178;-75
2023/04/04 01:19:03;;;;;;;3.00;1.10;;;0.90;99.90;-0.10;101478;;;;583100;242;24100;-76
2023/04/04 01:21:32;;;;;;;3.17;1.10;;;0.90;99.90;-0.10;101475;;;;574166;246;24185;-76
2023/04/04 01:24:03;;;;;;;4.83;3.07;;;0.90;99.90;-0.10;101476;;;;583036;246;25195;-74
2023/04/04 01:26:31;;;;;;;1.47;1.37;;;0.90;99.90;-0.10;101474;;;;574896;245;24161;-76
2023/04/04 01:28:59;;;;;;;2.57;1.80;;;0.80;99.90;-0.20;101476;;;;575522;245;24132;-74
2023/04/04 01:31:42;;;;;;;2.37;1.00;;;0.90;99.90;-0.20;101472;;;;575235;245;24094;-75
2023/04/04 01:34:34;;;;;;;1.47;1.10;;;0.90;99.90;-0.10;101470;;;;574634;245;24125;-75
2023/04/04 01:37:11;;;;;;;3.80;3.30;;;0.90;99.90;-0.10;101468;;;;574895;246;24132;-75
2023/04/04 01:39:53;;;;;;;2.70;1.70;;;0.90;99.90;-0.10;101459;;;;574645;246;24129;-76
2023/04/04 01:42:21;;;;;;;3.17;2.70;;;0.90;99.90;-0.10;101465;;;;574787;246;25131;-74
2023/04/04 01:44:49;;;;;;;3.33;1.10;;;0.90;99.90;-0.10;101458;;;;574651;246;26449;-75
2023/04/04 01:47:17;;;;;;;1.23;0.93;;;0.90;99.90;-0.10;101460;;;;574258;246;24117;-78
2023/04/04 01:49:48;;;;;;;2.77;0.90;;;0.80;99.90;-0.10;101463;;;;574534;246;24114;-78
2023/04/04 01:52:17;;;;;;;0.80;0.80;;;0.90;99.90;-0.10;101454;;;;574636;246;24183;-77
2023/04/04 01:54:44;;;;;;;3.03;1.07;;;0.90;99.90;-0.10;101461;;;;574551;246;24166;-74
2023/04/04 01:57:12;;;;;;;5.63;1.83;;;0.90;99.90;-0.10;101454;;;;574510;246;24104;-76
2023/04/04 01:59:41;;;;;;;1.37;0.70;;;0.90;99.90;-0.10;101453;;;;583218;242;24178;-76
2023/04/04 02:02:09;;;;;;;1.23;0.73;;;0.90;99.90;-0.10;101447;;;;574494;246;24111;-74
2023/04/04 02:04:37;;;;;;;3.60;0.77;;;0.90;99.90;-0.10;101445;;;;574322;246;24093;-76
2023/04/04 02:07:05;;;;;;;1.07;0.60;;;0.90;99.90;-0.10;101447;;;;574365;246;24107;-74
2023/04/04 02:09:33;;;;;;;2.33;0.90;;;0.90;99.90;-0.10;101439;;;;573958;246;24106;-74
2023/04/04 02:12:02;;;;;;;2.23;0.90;;;0.90;99.90;-0.10;101436;;;;582892;246;24074;-78
2023/04/04 02:14:30;;;;;;;2.43;0.80;;;0.90;99.90;-0.10;101426;;;;573888;246;24106;-78
2023/04/04 02:16:58;;;;;;;3.07;0.87;;;0.90;99.90;-0.10;101430;;;;574010;246;24092;-75
2023/04/04 02:19:26;;;;;;;1.50;0.73;;;0.90;99.90;-0.10;101435;;;;573885;246;24190;-74
2023/04/04 02:21:55;;;;;;;2.13;0.80;;;0.90;99.90;-0.10;101425;;;;578517;243;24086;-77
2023/04/04 02:24:25;;;;;;;3.73;1.50;;;0.90;99.90;-0.10;101432;;;;573898;246;24109;-75
2023/04/04 02:26:50;;;;;;;2.40;1.10;;;0.90;99.90;0.00;101434;;;;573394;246;24146;-74
2023/04/04 02:29:18;;;;;;;2.87;1.47;;;1.00;99.90;0.00;101422;;;;574060;246;24101;-81
2023/04/04 02:31:46;;;;;;;0.80;0.80;;;1.00;99.90;-0.10;101422;;;;573937;246;24113;-81
2023/04/04 02:34:14;;;;;;;1.00;0.70;;;0.90;99.90;0.00;101422;;;;574326;246;24175;-80
2023/04/04 02:36:42;;;;;;;2.17;0.90;;;0.90;99.90;0.00;101415;;;;574320;246;24124;-80
2023/04/04 02:39:10;;;;;;;1.10;0.97;;;0.90;99.90;0.00;101416;;;;575457;245;24155;-78
2023/04/04 02:41:38;;;;;;;3.10;0.87;;;1.00;99.90;0.00;101411;;;;575300;245;24143;-75
2023/04/04 02:44:08;;;;;;;1.60;1.20;;;0.90;99.90;0.00;101417;;;;575190;245;24142;-77
2023/04/04 02:46:34;;;;;;;3.63;1.10;;;1.00;99.90;-0.10;101423;;;;583760;245;25123;-76
2023/04/04 02:49:02;;;;;;;1.67;1.03;;;0.90;99.90;-0.10;101419;;;;574841;246;24096;-79
2023/04/04 02:51:30;;;;;;;1.70;1.17;;;0.90;99.90;-0.10;101419;;;;574873;246;24112;-76
2023/04/04 02:53:58;;;;;;;1.70;1.17;;;0.90;99.90;-0.10;101408;;;;574535;246;24097;-74
2023/04/04 02:56:26;;;;;;;1.67;1.20;;;0.90;99.90;-0.10;101408;;;;574263;246;24154;-74
2023/04/04 02:58:53;;;;;;;1.00;1.00;;;0.90;99.90;-0.10;101408;;;;574161;246;24098;-74
2023/04/04 03:01:21;;;;;;;1.80;1.13;;;0.90;99.90;-0.10;101412;;;;574186;246;24148;-74
2023/04/04 03:03:49;;;;;;;1.17;1.07;;;0.90;99.90;-0.10;101414;;;;574351;246;24125;-75
2023/04/04 03:06:17;;;;;;;3.37;1.33;;;0.90;99.90;-0.10;101405;;;;574222;246;24102;-76
2023/04/04 03:08:45;;;;;;;1.83;1.27;;;0.90;99.90;-0.10;101409;;;;574557;246;24082;-76
2023/04/04 03:11:13;;;;;;;3.67;1.30;;;0.90;99.90;-0.10;101407;;;;574526;246;25106;-74
2023/04/04 03:13:45;;;;;;;1.07;0.97;;;1.30;99.90;-0.10;101410;;;;574389;242;24148;-75
2023/04/04 03:16:14;;;;;;;4.80;1.33;;;0.90;99.90;-0.10;101406;;;;573913;246;24179;-75
2023/04/04 03:18:39;;;;;;;1.33;1.10;;;0.80;99.90;-0.10;101399;;;;573782;246;24152;-75
2023/04/04 03:21:06;;;;;;;1.77;1.00;;;0.80;99.90;-0.20;101401;;;;574264;246;24164;-74
2023/04/04 03:23:34;;;;;;;3.27;1.57;;;0.80;99.90;-0.20;101400;;;;574318;246;24096;-75
2023/04/04 03:26:03;;;;;;;1.20;0.83;;;0.80;99.90;-0.20;101389;;;;574264;246;24177;-77
2023/04/04 03:28:31;;;;;;;1.83;0.93;;;0.80;99.90;-0.20;101397;;;;574326;246;24118;-75
2023/04/04 03:31:08;;;;;;;2.50;1.03;;;0.80;99.90;-0.20;101388;;;;574252;246;24200;-79
2023/04/04 03:33:37;;;;;;;3.33;1.40;;;0.80;99.90;-0.20;101393;;;;577717;246;24097;-78
2023/04/04 03:36:12;;;;;;;4.33;1.63;;;0.80;99.90;-0.20;101385;;;;574229;246;24113;-76
2023/04/04 03:38:37;;;;;;;1.93;1.23;;;0.80;99.90;-0.20;101394;;;;573977;246;24165;-77
2023/04/04 03:41:05;;;;;;;1.83;1.20;;;0.80;99.90;-0.20;101381;;;;574347;246;24085;-78
2023/04/04 03:43:36;;;;;;;1.40;1.10;;;0.80;99.90;-0.30;101378;;;;583147;246;24101;-77
2023/04/04 03:46:03;;;;;;;1.90;1.00;;;0.80;99.90;-0.30;101380;;;;574056;246;25243;-80
2023/04/04 03:48:32;;;;;;;3.07;0.93;;;0.70;99.90;-0.30;101380;;;;574306;246;24139;-78
2023/04/04 03:50:59;;;;;;;1.33;1.23;;;0.70;99.90;-0.30;101380;;;;575484;245;24185;-80
2023/04/04 03:53:27;;;;;;;2.37;0.90;;;0.70;99.90;-0.30;101373;;;;575378;245;24133;-77
2023/04/04 03:55:56;;;;;;;1.53;0.87;;;0.70;99.90;-0.30;101379;;;;574862;245;24078;-79
2023/04/04 03:58:27;;;;;;;2.47;0.90;;;0.70;99.90;-0.30;101376;;;;574710;246;24158;-76
2023/04/04 04:00:52;;;;;;;2.90;0.70;;;0.70;99.90;-0.30;101372;;;;574005;246;24095;-76
2023/04/04 04:03:20;;;;;;;1.20;1.00;;;0.70;99.90;-0.30;101366;;;;574515;246;24081;-76
2023/04/04 04:05:48;;;;;;;1.83;0.87;;;0.80;99.90;-0.30;101359;;;;574409;246;24191;-75
2023/04/04 04:08:17;;;;;;;2.87;0.97;;;0.70;99.90;-0.30;101379;;;;574272;246;24170;-78
2023/04/04 04:10:45;;;;;;;7.03;1.40;;;0.70;99.90;-0.30;101366;;;;574572;246;24120;-77
2023/04/04 04:13:13;;;;;;;2.47;1.03;;;0.70;99.90;-0.30;101367;;;;574502;246;24151;-74
2023/04/04 04:15:41;;;;;;;2.23;1.30;;;0.70;99.90;-0.40;101366;;;;574540;246;24109;-75
2023/04/04 04:18:09;;;;;;;2.90;1.10;;;0.70;99.90;-0.40;101366;;;;578195;244;24140;-76
2023/04/04 04:20:37;;;;;;;4.67;1.33;;;0.60;99.90;-0.40;101366;;;;574505;246;24102;-74
2023/04/04 04:23:05;;;;;;;1.93;1.03;;;0.60;99.90;-0.40;101366;;;;583354;246;24081;-75
2023/04/04 04:25:33;;;;;;;2.57;0.90;;;0.60;99.90;-0.30;101369;;;;574463;246;24175;-74
2023/04/04 04:28:01;;;;;;;3.13;1.00;;;0.70;99.90;-0.30;101370;;;;574255;246;24146;-80
2023/04/04 04:30:29;;;;;;;2.87;1.00;;;0.70;99.90;-0.30;101368;;;;574318;246;24215;-76
2023/04/04 04:32:57;;;;;;;2.97;1.73;;;0.70;99.90;-0.30;101374;;;;573982;246;24087;-76
2023/04/04 04:35:25;;;;;;;1.90;1.70;;;0.70;99.90;-0.30;101374;;;;573929;246;24083;-75
2023/04/04 04:37:53;;;;;;;3.47;1.13;;;0.70;99.90;-0.30;101379;;;;574127;246;24118;-75
2023/04/04 04:40:20;;;;;;;1.27;1.10;;;0.70;99.90;-0.40;101376;;;;574006;246;24090;-74
2023/04/04 04:42:48;;;;;;;2.97;1.60;;;0.60;99.90;-0.40;101377;;;;569096;246;46165;-76
2023/04/04 04:45:16;;;;;;;0.67;0.67;;;0.60;99.90;-0.40;101372;;;;573990;246;24095;-75
2023/04/04 04:47:45;;;;;;;0.73;0.67;;;0.60;99.90;-0.30;101364;;;;574015;246;24149;-79
2023/04/04 04:50:12;;;;;;;0.90;0.53;;;0.70;99.90;-0.30;101367;;;;574142;246;24133;-78
2023/04/04 04:52:41;;;;;;;2.63;0.90;;;0.80;99.90;-0.20;101374;;;;573981;246;24081;-78
2023/04/04 04:55:13;;;;;;;1.13;1.13;;;0.80;99.90;-0.10;101371;;;;574054;246;24102;-79
2023/04/04 04:57:40;;;;;;;5.80;0.90;;;0.90;99.90;0.00;101374;;;;573799;246;24179;-78
2023/04/04 05:00:11;;;;;;;1.83;1.13;;;1.00;99.90;0.10;101375;;;;583123;246;24111;-78
2023/04/04 05:02:36;;;;;;;12.27;0.93;;;1.10;99.90;0.20;101380;;;;578536;245;24089;-79
2023/04/04 05:05:06;;;;;;;4.43;0.83;;;1.20;99.90;0.20;101373;;;;574895;245;24339;-77
2023/04/04 05:07:32;;;;;;;3.90;0.95;;;-1.90;99.90;0.20;101373;;;;567974;245;35254;-80
2023/04/04 05:09:59;;;;;;;3.63;1.60;;;1.30;99.90;0.30;101366;;;;574938;246;24078;-77
2023/04/04 05:12:27;;;;;;;0.97;0.90;;;1.20;99.90;0.20;101382;;;;574772;246;24072;-76
2023/04/04 05:14:56;;;;;;;4.97;0.70;;;1.30;99.90;0.20;101387;;;;574826;246;24142;-75
2023/04/04 05:17:24;;;;;;;2.73;0.90;;;1.20;99.90;0.20;101394;;;;583592;246;24086;-79
2023/04/04 05:19:52;;;;;;;0.70;0.70;;;1.30;99.90;0.20;101382;;;;574654;246;24089;-75
2023/04/04 05:22:20;;;;;;;0.93;0.93;;;1.20;99.90;0.20;101376;;;;574575;246;24134;-81
2023/04/04 05:24:47;;;;;;;2.90;1.53;;;1.20;99.90;0.30;101382;;;;583350;242;24117;-78
2023/04/04 05:27:15;;;;;;;0.80;0.80;;;1.30;99.90;0.30;101379;;;;574612;246;24167;-79
2023/04/04 05:29:45;;;;;;;0.87;0.87;;;1.30;99.90;0.40;101382;;;;574581;246;24141;-80
2023/04/04 05:32:12;;;;;;;1.10;0.77;;;1.40;99.90;0.40;101385;;;;574547;246;24197;-78
2023/04/04 05:34:40;;;;;;;1.60;0.97;;;1.40;99.90;0.40;101393;;;;574557;246;24171;-76
2023/04/04 05:37:08;;;;;;;6.87;1.70;;;1.40;99.90;0.30;101387;;;;574409;246;24090;-80
2023/04/04 05:39:36;;;;;;;2.97;0.80;;;1.30;99.90;0.20;101384;;;;574250;246;24167;-81
2023/04/04 05:42:04;;;;;;;3.13;1.43;;;1.20;99.90;0.20;101383;;;;574265;246;24084;-82
2023/04/04 05:44:31;;;;;;;1.87;1.43;;;1.20;99.90;0.30;101378;;;;574259;246;24102;-81
2023/04/04 05:46:59;;;;;;;3.87;0.80;;;1.20;99.90;0.50;101383;;;;574282;246;24121;-80
2023/04/04 05:49:27;;;;;;;0.93;0.70;;;1.40;99.90;0.80;101380;;;;574355;246;24081;-80
2023/04/04 05:51:58;;;;;;;0.73;0.73;;;1.70;99.90;1.00;101388;;;;583182;246;24129;-81
2023/04/04 05:54:27;;;;;;;5.63;1.00;;;2.10;99.90;1.20;101383;;;;574341;246;24121;-80
2023/04/04 05:56:57;;;;;;;2.27;0.90;;;2.10;99.90;1.30;101383;;;;574283;246;25536;-79
2023/04/04 05:59:25;;;;;;;4.07;1.47;;;2.20;99.90;1.50;101385;;;;574341;246;24128;-80
2023/04/04 06:01:53;;;;;;;5.63;0.80;;;2.40;99.90;2.70;101389;;;;574290;246;24109;-77
2023/04/04 06:04:21;;;;;;;1.70;1.03;;;3.20;99.90;4.60;101403;;;;574436;246;24121;-79
2023/04/04 06:06:49;;;;;;;3.40;0.73;;;4.90;99.90;5.00;101394;;;;574299;246;24167;-80
2023/04/04 06:09:17;;;;;;;2.73;1.03;;;5.70;99.90;4.60;101397;;;;574296;246;24127;-80
2023/04/04 06:11:45;;;;;;;4.80;1.07;;;5.60;99.90;4.10;101385;;;;573983;246;24160;-77
2023/04/04 06:14:12;;;;;;;2.73;0.80;;;5.20;99.90;3.70;101385;;;;575368;245;24086;-75
2023/04/04 06:16:40;;;;;;;2.67;0.93;;;4.90;99.90;3.90;101382;;;;575225;245;24100;-78
2023/04/04 06:19:08;;;;;;;0.90;0.53;;;4.80;99.90;4.60;101383;;;;574746;245;24163;-82
2023/04/04 06:21:36;;;;;;;3.20;1.13;;;5.20;99.90;7.20;101380;;;;574640;246;24174;-79
2023/04/04 06:24:04;;;;;;;3.90;1.37;;;7.20;99.90;9.90;101394;;;;574621;246;24112;-76
2023/04/04 06:26:32;;;;;;;0.83;0.83;;;9.80;96.20;12.00;101393;;;;574785;246;24144;-79
2023/04/04 06:29:00;;;;;;;1.27;0.90;;;12.00;85.40;14.10;101395;;;;575328;246;24174;-79
2023/04/04 06:31:28;;;;;;;0.80;0.53;;;14.10;72.60;14.60;101390;;;;574455;246;24074;-79
2023/04/04 06:33:56;;;;;;;2.00;0.60;;;15.10;61.20;13.10;101390;;;;574543;246;24097;-74
2023/04/04 06:36:24;;;;;;;0.70;0.70;;;14.40;58.20;10.90;101388;;;;574758;246;24093;-74
2023/04/04 06:38:55;;;;;;;1.33;0.90;;;12.80;56.80;9.20;101384;;;;574322;246;24148;-74
2023/04/04 06:41:19;;;;;;;2.40;0.80;;;11.10;59.40;7.70;101379;;;;578260;246;24103;-76
2023/04/04 06:43:48;;;;;;;3.20;0.93;;;9.50;64.30;6.80;101391;;;;574528;246;24174;-78
2023/04/04 06:46:15;;;;;;;1.23;0.50;;;8.40;69.60;5.70;101386;;;;574803;246;24118;-79
2023/04/04 06:48:43;;;;;;;0.70;0.47;;;7.30;80.40;4.80;101376;;;;574256;246;24125;-77
2023/04/04 06:51:11;;;;;;;5.13;0.90;;;6.30;87.10;4.30;101372;;;;582650;246;24102;-75
2023/04/04 06:53:39;;;;;;;1.90;0.80;;;5.60;93.60;4.20;101375;;;;573888;246;24095;-77
2023/04/04 06:56:07;;;;;;;0.90;0.80;;;5.30;95.40;4.00;101377;;;;573906;246;24102;-78
2023/04/04 06:58:37;;;;;;;2.10;0.80;;;5.00;95.60;3.90;101379;;;;572493;246;24094;-74
2023/04/04 07:01:03;;;;;;;1.50;1.05;;;4.90;97.00;3.70;101367;;;;567860;246;35272;-75
2023/04/04 07:03:31;;;;;;;2.00;0.50;;;4.80;97.70;3.80;101364;;;;574260;246;24132;-75
2023/04/04 07:05:58;;;;;;;1.20;0.77;;;4.70;98.70;4.10;101370;;;;574193;246;24111;-75
2023/04/04 07:08:26;;;;;;;5.03;0.80;;;4.90;99.40;4.30;101368;;;;574219;246;24129;-75
2023/04/04 07:10:54;;;;;;;2.83;1.17;;;5.10;99.10;4.30;101365;;;;574289;246;24099;-76
2023/04/04 07:13:25;;;;;;;2.70;0.73;;;5.10;98.10;4.10;101370;;;;582654;246;25160;-74
2023/04/04 07:15:54;;;;;;;0.70;0.70;;;5.00;99.80;3.90;101364;;;;573777;246;25131;-75
2023/04/04 07:18:18;;;;;;;5.23;1.13;;;4.90;99.90;3.70;101362;;;;573540;246;24160;-76
2023/04/04 07:20:47;;;;;;;4.00;1.20;;;4.50;99.90;3.50;101359;;;;577595;246;35218;-75
2023/04/04 07:23:15;;;;;;;1.47;1.20;;;4.50;99.90;3.50;101366;;;;568921;246;46178;-76
2023/04/04 07:25:42;;;;;;;6.13;1.20;;;4.40;99.90;3.40;101367;;;;575240;245;24134;-75
2023/04/04 07:28:10;;;;;;;4.67;1.30;;;4.30;99.90;3.30;101370;;;;575091;245;24145;-77
2023/04/04 07:30:38;;;;;;;0.70;0.70;;;4.30;99.90;3.20;101358;;;;574704;245;24146;-77
2023/04/04 07:33:06;;;;;;;2.13;1.03;;;4.20;99.90;3.10;101357;;;;574556;246;24194;-76
2023/04/04 07:35:34;;;;;;;2.50;0.90;;;4.10;99.90;3.10;101358;;;;574482;246;24112;-78
2023/04/04 07:38:03;;;;;;;0.57;0.53;;;4.00;99.90;2.90;101362;;;;574557;246;24077;-76
2023/04/04 07:40:33;;;;;;;2.50;0.97;;;3.90;99.90;2.80;101356;;;;575561;246;24088;-77
2023/04/04 07:42:58;;;;;;;2.20;0.70;;;3.80;99.90;2.80;101363;;;;575188;246;24135;-75
2023/04/04 07:45:26;;;;;;;0.20;0.20;;;3.80;99.90;2.90;101358;;;;575836;246;24247;-76
2023/04/04 07:47:54;;;;;;;1.37;1.27;;;3.80;99.90;3.00;101358;;;;575532;246;24114;-77
2023/04/04 07:50:21;;;;;;;3.03;1.27;;;3.90;99.90;3.20;101347;;;;575503;246;24108;-75
2023/04/04 07:52:59;;;;;;;0.83;0.70;;;4.10;99.90;3.30;101338;;;;575486;246;24053;-77
2023/04/04 07:55:18;;;;;;;3.43;0.60;;;4.20;99.90;3.40;101343;;;;574945;246;24157;-74
2023/04/04 07:57:46;;;;;;;0.50;0.50;;;4.30;99.90;4.60;101342;;;;575167;246;24160;-79
2023/04/04 08:00:18;;;;;;;0.50;0.50;;;7.10;99.90;6.90;101349;;;;574103;246;24101;-79
2023/04/04 08:02:42;;;;;;;1.60;1.17;;;7.10;99.90;9.70;101360;;;;573915;246;24135;-78
2023/04/04 08:05:10;;;;;;;3.50;1.40;;;9.80;96.60;10.60;101370;;;;574260;246;24113;-79
2023/04/04 08:07:38;;;;;;;2.47;0.67;;;11.10;89.90;10.50;101349;;;;583085;242;24092;-80
2023/04/04 08:10:06;;;;;;;1.27;0.80;;;11.30;82.50;11.70;101346;;;;574281;246;24153;-78
2023/04/04 08:12:34;;;;;;;1.03;0.60;;;12.20;80.10;13.10;101357;;;;573843;246;24128;-78
2023/04/04 08:15:02;;;;;;;2.47;0.87;;;13.50;73.90;15.00;101357;;;;582817;246;24122;-77
2023/04/04 08:17:30;;;;;;;1.80;0.70;;;15.30;66.30;16.90;101365;;;;573876;246;24114;-81
2023/04/04 08:19:58;;;;;;;0.90;0.90;;;17.20;59.20;18.30;101364;;;;573837;246;24086;-79
2023/04/04 08:22:26;;;;;;;3.83;0.90;;;18.70;52.80;19.50;101347;;;;573951;246;24084;-81
2023/04/04 08:24:54;;;;;;;5.43;1.00;;;21.70;47.00;21.30;101355;;;;573898;246;24106;-76
2023/04/04 08:27:23;;;;;;;5.60;0.97;;;22.90;42.40;22.00;101368;;;;574014;246;24113;-79
2023/04/04 08:29:51;;;;;;;7.37;1.03;;;22.80;42.40;21.70;101362;;;;573965;246;24101;-79
2023/04/04 08:32:20;;;;;;;1.30;0.70;;;22.70;40.00;21.10;101360;;;;573933;246;24155;-80
2023/04/04 08:34:48;;;;;;;1.63;0.63;;;22.70;39.90;21.00;101359;;;;574016;246;24144;-81
2023/04/04 08:37:17;;;;;;;2.13;0.83;;;22.50;41.80;21.50;101348;;;;575060;245;24130;-76
2023/04/04 08:39:48;;;;;;;2.27;0.77;;;22.50;41.70;22.40;101359;;;;583840;245;23164;-78
2023/04/04 08:42:15;;;;;;;3.20;0.83;;;23.20;41.30;22.30;101362;;;;574552;245;23173;-79
2023/04/04 08:44:40;;;;;;;1.43;0.80;;;23.60;38.40;19.80;101352;;;;583858;246;24132;-75
2023/04/04 08:47:09;;;;;;;1.17;1.00;;;22.00;39.30;20.00;101347;;;;574662;246;23134;-76
2023/04/04 08:49:38;;;;;;;1.03;0.80;;;21.40;41.60;21.30;101355;;;;574312;246;24101;-77
2023/04/04 08:52:06;;;;;;;2.03;0.90;;;22.00;41.20;20.90;101370;;;;583196;246;24091;-78
2023/04/04 08:54:34;;;;;;;5.43;1.23;;;22.10;39.50;20.30;101368;;;;563984;250;24128;-80
2023/04/04 08:57:06;;;;;;;14.93;1.80;;;21.60;39.20;20.00;101352;;;;571551;247;24024;-79
2023/04/04 08:59:30;;;;;;;2.80;0.97;;;21.10;40.40;20.60;101346;;;;571631;247;24049;-77
2023/04/04 09:01:58;;;;;;;2.63;1.07;;;21.50;39.90;21.80;101359;;;;574530;246;24182;-76
2023/04/04 09:04:29;;;;;;;2.03;0.90;;;22.50;38.90;21.00;101352;;;;568226;246;24087;-78
2023/04/04 09:06:54;;;;;;;9.23;1.33;;;22.30;38.30;20.80;101359;;;;563607;250;24132;-75
2023/04/04 09:09:22;;;;;;;2.67;0.80;;;22.00;38.20;21.00;101347;;;;563963;250;24136;-79
2023/04/04 09:11:50;;;;;;;1.47;0.83;;;22.00;38.20;20.10;101358;;;;571955;251;23163;-78
2023/04/04 09:14:20;;;;;;;1.77;0.80;;;21.60;37.80;20.90;101347;;;;574371;246;24097;-78
2023/04/04 09:16:51;;;;;;;3.73;0.80;;;22.40;37.60;21.50;101350;;;;572295;247;24189;-80
2023/04/04 09:19:16;;;;;;;2.10;1.13;;;22.40;37.50;22.60;101348;;;;563691;250;24165;-77
2023/04/04 09:21:50;;;;;;;1.77;1.27;;;23.40;36.40;23.20;101356;;;;574308;246;24085;-78
2023/04/04 09:24:15;;;;;;;3.00;1.00;;;24.20;35.60;23.80;101349;;;;573882;246;23205;-80
2023/04/04 09:26:51;;;;;;;3.50;1.27;;;24.90;35.30;24.20;101352;;;;574255;246;24102;-79
2023/04/04 09:29:23;;;;;;;7.90;2.07;;;25.50;35.00;24.30;101350;;;;574247;246;23205;-80
2023/04/04 09:31:52;;;;;;;5.33;1.33;;;25.20;34.10;23.20;101362;;;;574283;246;23107;-80
2023/04/04 09:34:20;;;;;;;1.53;0.93;;;25.20;34.00;22.00;101375;;;;583089;246;23206;-81
2023/04/04 09:36:48;;;;;;;4.77;1.40;;;23.90;35.10;22.10;101357;;;;583076;246;23130;-81
2023/04/04 09:39:16;;;;;;;4.33;0.97;;;23.70;35.60;22.60;101346;;;;574225;246;23091;-79
2023/04/04 09:41:50;;;;;;;4.40;1.83;;;24.00;36.60;22.90;101355;;;;574254;246;24073;-76
2023/04/04 09:44:14;;;;;;;14.47;2.17;;;24.30;36.00;21.60;101344;;;;573901;246;24143;-76
2023/04/04 09:46:42;;;;;;;7.97;1.50;;;23.70;35.10;20.40;101348;;;;574190;246;23170;-75
2023/04/04 09:49:10;;;;;;;2.17;1.27;;;22.60;37.50;21.20;101360;;;;575655;245;24069;-76
2023/04/04 09:51:40;;;;;;;4.45;1.60;;;22.70;38.60;21.50;101364;;;;570293;245;35193;-77
2023/04/04 09:54:07;;;;;;;0.53;0.53;;;23.80;36.20;22.40;101370;;;;583795;245;23099;-77
2023/04/04 09:56:38;;;;;;;1.20;0.80;;;23.80;36.20;22.70;101360;;;;574688;246;24145;-76
2023/04/04 09:59:03;;;;;;;2.17;1.20;;;24.40;35.50;22.80;101349;;;;573972;246;23169;-77
2023/04/04 10:01:32;;;;;;;2.90;0.80;;;24.50;35.60;22.30;101348;;;;574745;246;24127;-79
2023/04/04 10:03:59;;;;;;;3.13;1.27;;;24.50;34.50;21.00;101359;;;;575038;246;23099;-78
2023/04/04 10:06:27;;;;;;;1.60;0.97;;;23.50;35.50;20.50;101355;;;;574591;246;23172;-77
2023/04/04 10:08:55;;;;;;;1.47;1.00;;;22.80;36.40;20.80;101356;;;;565537;244;24139;-86
2023/04/04 10:11:32;;;;;;;0.63;0.63;;;22.70;36.70;21.20;101348;;;;554712;254;23205;-82
2023/04/04 10:14:01;;;;;;;3.90;1.07;;;23.00;36.60;21.00;101346;;;;557489;253;23126;-82
2023/04/04 10:16:28;;;;;;;0.80;0.80;;;22.90;37.10;20.00;101357;;;;553196;253;24084;-81
2023/04/04 10:18:59;;;;;;;5.00;1.30;;;22.20;37.00;18.40;101339;;;;547885;256;24097;-81
2023/04/04 10:21:23;;;;;;;2.50;1.40;;;20.70;37.80;16.80;101325;;;;548402;258;24187;-81
2023/04/04 10:23:51;;;;;;;2.57;0.80;;;18.80;40.30;15.20;101336;;;;559003;251;24113;-82
2023/04/04 10:26:19;;;;;;;4.20;1.33;;;17.10;41.80;13.60;101327;;;;557147;253;24129;-81
2023/04/04 10:28:47;;;;;;;0.83;0.70;;;15.30;44.60;12.20;101321;;;;559060;253;24136;-81
2023/04/04 10:31:20;;;;;;;2.30;0.73;;;12.50;49.80;11.30;101321;;;;559187;253;24130;-81
2023/04/04 10:34:21;;;;;;;1.17;0.63;;;11.60;52.40;10.40;101319;;;;556595;257;24310;-79
2023/04/04 10:36:52;;;;;;;1.67;0.93;;;11.50;53.00;9.50;101327;;;;554724;258;24123;-80
2023/04/04 10:39:23;;;;;;;1.17;0.77;;;10.50;54.50;8.80;101317;;;;556618;253;24097;-81
2023/04/04 10:41:51;;;;;;;0.63;0.50;;;9.80;56.20;8.10;101313;;;;548537;257;24145;-79
2023/04/04 10:44:24;;;;;;;1.47;0.73;;;9.00;58.00;7.50;101318;;;;551747;253;24210;-77
2023/04/04 10:46:55;;;;;;;2.33;0.90;;;8.40;58.50;7.10;101334;;;;533392;262;35618;-80
2023/04/04 10:49:23;;;;;;;6.30;1.80;;;7.90;60.20;6.60;101306;;;;547757;257;24174;-78
2023/04/04 10:51:54;;;;;;;2.13;0.53;;;7.40;61.00;6.20;101297;;;;552296;259;24074;-76
2023/04/04 10:54:25;;;;;;;0.33;0.33;;;7.00;62.00;5.90;101304;;;;565057;250;24028;-79
2023/04/04 10:56:49;;;;;;;9.30;0.90;;;6.60;64.00;5.50;101289;;;;552988;255;24177;-77
2023/04/04 10:59:17;;;;;;;3.97;0.90;;;6.30;63.90;5.10;101301;;;;557479;253;24135;-77
2023/04/04 11:01:55;;;;;;;1.90;0.80;;;6.00;65.30;4.90;101297;;;;558378;253;24137;-78
2023/04/04 11:04:22;;;;;;;0.70;0.70;;;5.70;66.40;4.80;101299;;;;555558;258;24068;-78
2023/04/04 11:07:09;;;;;;;0.83;0.80;;;5.60;67.10;4.50;101293;;;;556680;253;27340;-76
2023/04/04 11:09:55;;;;;;;2.20;0.77;;;5.40;65.10;4.30;101291;;;;547450;257;24099;-77
2023/04/04 11:12:25;;;;;;;1.20;1.00;;;5.20;66.30;4.30;101288;;;;557010;254;24051;-77
2023/04/04 11:15:03;;;;;;;4.13;1.07;;;5.10;68.10;4.20;101283;;;;556824;254;24069;-77
2023/04/04 11:17:48;;;;;;;1.13;0.67;;;5.00;67.00;4.00;101270;;;;564687;254;24076;-76
2023/04/04 11:20:16;;;;;;;3.23;1.00;;;4.90;67.50;3.80;101268;;;;556461;254;24089;-76
2023/04/04 11:22:44;;;;;;;53.13;6.93;;;4.70;68.70;3.70;101278;;;;546547;258;24129;-76